sensor_id;sensor_type;location;lat;lon;timestamp;P1;durP1;ratioP1;P2;durP2;ratioP2
29700;SDS011;57917;51.380;-0.176;2023-08-08T00:02:33;6.47;;;1.13;;
29700;SDS011;57917;51.380;-0.176;2023-08-08T00:08:20;6.53;;;1.00;;
29700;SDS011;57917;51.380;-0.176;2023-08-08T00:14:07;3.60;;;0.90;;
29700;SDS011;57917;51.380;-0.176;2023-08-08T00:19:54;1.75;;;0.90;;
29700;SDS011;57917;51.380;-0.176;2023-08-08T00:25:41;0.80;;;0.50;;
29700;SDS011;57917;51.380;-0.176;2023-08-08T00:31:28;7.88;;;1.63;;
29700;SDS011;57917;51.380;-0.176;2023-08-08T00:37:15;0.40;;;0.40;;
29700;SDS011;57917;51.380;-0.176;2023-08-08T00:43:02;0.90;;;0.60;;
29700;SDS011;57917;51.380;-0.176;2023-08-08T00:48:50;3.38;;;1.00;;
29700;SDS011;57917;51.380;-0.176;2023-08-08T00:54:39;3.55;;;0.90;;
29700;SDS011;57917;51.380;-0.176;2023-08-08T01:00:26;4.38;;;0.90;;
29700;SDS011;57917;51.380;-0.176;2023-08-08T01:12:48;4.45;;;0.98;;
29700;SDS011;57917;51.380;-0.176;2023-08-08T01:18:42;6.63;;;1.00;;
29700;SDS011;57917;51.380;-0.176;2023-08-08T01:24:31;5.90;;;1.00;;
29700;SDS011;57917;51.380;-0.176;2023-08-08T01:30:20;7.40;;;1.30;;
29700;SDS011;57917;51.380;-0.176;2023-08-08T01:36:10;2.80;;;0.77;;
29700;SDS011;57917;51.380;-0.176;2023-08-08T01:42:09;2.78;;;0.80;;
29700;SDS011;57917;51.380;-0.176;2023-08-08T01:47:58;2.13;;;0.82;;
29700;SDS011;57917;51.380;-0.176;2023-08-08T01:53:48;1.90;;;1.20;;
29700;SDS011;57917;51.380;-0.176;2023-08-08T01:59:34;5.35;;;1.20;;
29700;SDS011;57917;51.380;-0.176;2023-08-08T02:05:21;3.50;;;0.88;;
29700;SDS011;57917;51.380;-0.176;2023-08-08T02:11:08;1.63;;;0.65;;
29700;SDS011;57917;51.380;-0.176;2023-08-08T02:16:55;4.82;;;0.65;;
29700;SDS011;57917;51.380;-0.176;2023-08-08T02:22:42;1.35;;;0.77;;
29700;SDS011;57917;51.380;-0.176;2023-08-08T02:28:30;2.92;;;1.00;;
29700;SDS011;57917;51.380;-0.176;2023-08-08T02:34:17;6.43;;;1.08;;
29700;SDS011;57917;51.380;-0.176;2023-08-08T02:40:04;1.73;;;0.90;;
29700;SDS011;57917;51.380;-0.176;2023-08-08T02:45:52;1.45;;;0.80;;
29700;SDS011;57917;51.380;-0.176;2023-08-08T02:51:41;1.13;;;0.90;;
29700;SDS011;57917;51.380;-0.176;2023-08-08T02:57:28;1.95;;;0.60;;
29700;SDS011;57917;51.380;-0.176;2023-08-08T03:03:16;2.58;;;0.70;;
29700;SDS011;57917;51.380;-0.176;2023-08-08T03:09:04;6.93;;;0.90;;
29700;SDS011;57917;51.380;-0.176;2023-08-08T03:14:51;5.28;;;0.90;;
29700;SDS011;57917;51.380;-0.176;2023-08-08T03:20:41;0.80;;;0.57;;
29700;SDS011;57917;51.380;-0.176;2023-08-08T03:26:31;2.97;;;0.50;;
29700;SDS011;57917;51.380;-0.176;2023-08-08T03:32:18;2.60;;;1.48;;
29700;SDS011;57917;51.380;-0.176;2023-08-08T03:38:05;3.78;;;1.00;;
29700;SDS011;57917;51.380;-0.176;2023-08-08T03:43:52;6.85;;;1.05;;
29700;SDS011;57917;51.380;-0.176;2023-08-08T03:49:39;1.10;;;0.68;;
29700;SDS011;57917;51.380;-0.176;2023-08-08T03:55:26;0.85;;;0.70;;
29700;SDS011;57917;51.380;-0.176;2023-08-08T04:01:13;0.65;;;0.43;;
29700;SDS011;57917;51.380;-0.176;2023-08-08T04:07:01;1.77;;;0.80;;
29700;SDS011;57917;51.380;-0.176;2023-08-08T04:12:47;2.42;;;1.15;;
29700;SDS011;57917;51.380;-0.176;2023-08-08T04:18:34;2.28;;;0.63;;
29700;SDS011;57917;51.380;-0.176;2023-08-08T04:24:21;0.93;;;0.68;;
29700;SDS011;57917;51.380;-0.176;2023-08-08T04:30:09;1.15;;;0.73;;
29700;SDS011;57917;51.380;-0.176;2023-08-08T04:35:56;2.35;;;0.93;;
29700;SDS011;57917;51.380;-0.176;2023-08-08T04:41:43;7.90;;;1.00;;
29700;SDS011;57917;51.380;-0.176;2023-08-08T04:47:30;9.77;;;0.57;;
29700;SDS011;57917;51.380;-0.176;2023-08-08T04:53:17;1.60;;;0.52;;
29700;SDS011;57917;51.380;-0.176;2023-08-08T04:59:05;8.60;;;1.13;;
29700;SDS011;57917;51.380;-0.176;2023-08-08T05:04:52;0.77;;;0.68;;
29700;SDS011;57917;51.380;-0.176;2023-08-08T05:10:39;3.03;;;1.05;;
29700;SDS011;57917;51.380;-0.176;2023-08-08T05:16:26;1.00;;;0.70;;
29700;SDS011;57917;51.380;-0.176;2023-08-08T05:22:13;2.28;;;0.68;;
29700;SDS011;57917;51.380;-0.176;2023-08-08T05:28:02;6.18;;;0.82;;
29700;SDS011;57917;51.380;-0.176;2023-08-08T05:33:49;8.13;;;1.20;;
29700;SDS011;57917;51.380;-0.176;2023-08-08T05:39:36;1.42;;;1.05;;
29700;SDS011;57917;51.380;-0.176;2023-08-08T05:45:23;3.50;;;0.85;;
29700;SDS011;57917;51.380;-0.176;2023-08-08T05:51:10;1.40;;;0.80;;
29700;SDS011;57917;51.380;-0.176;2023-08-08T05:56:56;1.48;;;0.93;;
29700;SDS011;57917;51.380;-0.176;2023-08-08T06:02:43;5.03;;;1.23;;
29700;SDS011;57917;51.380;-0.176;2023-08-08T06:08:30;1.10;;;0.80;;
29700;SDS011;57917;51.380;-0.176;2023-08-08T06:14:18;1.02;;;0.80;;
29700;SDS011;57917;51.380;-0.176;2023-08-08T06:20:05;2.78;;;0.80;;
29700;SDS011;57917;51.380;-0.176;2023-08-08T06:25:53;2.78;;;1.00;;
29700;SDS011;57917;51.380;-0.176;2023-08-08T06:31:40;2.03;;;0.90;;
29700;SDS011;57917;51.380;-0.176;2023-08-08T06:37:28;1.92;;;0.70;;
29700;SDS011;57917;51.380;-0.176;2023-08-08T06:43:14;2.45;;;1.15;;
29700;SDS011;57917;51.380;-0.176;2023-08-08T06:49:01;1.17;;;0.80;;
29700;SDS011;57917;51.380;-0.176;2023-08-08T06:54:48;2.47;;;0.73;;
29700;SDS011;57917;51.380;-0.176;2023-08-08T07:00:36;1.70;;;0.55;;
29700;SDS011;57917;51.380;-0.176;2023-08-08T07:06:23;4.13;;;0.95;;
29700;SDS011;57917;51.380;-0.176;2023-08-08T07:12:12;2.10;;;1.15;;
29700;SDS011;57917;51.380;-0.176;2023-08-08T07:17:59;1.13;;;0.75;;
29700;SDS011;57917;51.380;-0.176;2023-08-08T07:23:46;1.10;;;0.50;;
29700;SDS011;57917;51.380;-0.176;2023-08-08T07:29:33;2.95;;;0.95;;
29700;SDS011;57917;51.380;-0.176;2023-08-08T07:35:20;1.23;;;0.50;;
29700;SDS011;57917;51.380;-0.176;2023-08-08T07:41:06;1.88;;;0.85;;
29700;SDS011;57917;51.380;-0.176;2023-08-08T07:46:53;1.40;;;0.77;;
29700;SDS011;57917;51.380;-0.176;2023-08-08T07:52:42;2.10;;;0.70;;
29700;SDS011;57917;51.380;-0.176;2023-08-08T07:58:29;5.75;;;0.77;;
29700;SDS011;57917;51.380;-0.176;2023-08-08T08:04:17;1.25;;;0.60;;
29700;SDS011;57917;51.380;-0.176;2023-08-08T08:10:06;1.52;;;0.80;;
29700;SDS011;57917;51.380;-0.176;2023-08-08T08:15:55;1.33;;;0.70;;
29700;SDS011;57917;51.380;-0.176;2023-08-08T08:21:43;2.65;;;1.30;;
29700;SDS011;57917;51.380;-0.176;2023-08-08T08:27:29;7.22;;;1.13;;
29700;SDS011;57917;51.380;-0.176;2023-08-08T08:33:16;2.25;;;0.90;;
29700;SDS011;57917;51.380;-0.176;2023-08-08T08:39:03;5.93;;;1.05;;
29700;SDS011;57917;51.380;-0.176;2023-08-08T08:44:52;1.98;;;0.90;;
29700;SDS011;57917;51.380;-0.176;2023-08-08T08:50:42;2.67;;;0.80;;
29700;SDS011;57917;51.380;-0.176;2023-08-08T08:56:32;1.65;;;0.85;;
29700;SDS011;57917;51.380;-0.176;2023-08-08T09:02:19;1.55;;;0.70;;
29700;SDS011;57917;51.380;-0.176;2023-08-08T09:08:10;5.40;;;1.00;;
29700;SDS011;57917;51.380;-0.176;2023-08-08T09:13:58;6.70;;;1.00;;
29700;SDS011;57917;51.380;-0.176;2023-08-08T09:19:48;2.35;;;0.80;;
29700;SDS011;57917;51.380;-0.176;2023-08-08T09:25:35;5.35;;;1.02;;
29700;SDS011;57917;51.380;-0.176;2023-08-08T09:31:25;1.58;;;1.05;;
29700;SDS011;57917;51.380;-0.176;2023-08-08T09:37:17;1.73;;;0.75;;
29700;SDS011;57917;51.380;-0.176;2023-08-08T09:43:06;3.28;;;0.93;;
29700;SDS011;57917;51.380;-0.176;2023-08-08T09:48:56;2.35;;;1.08;;
29700;SDS011;57917;51.380;-0.176;2023-08-08T09:54:44;2.53;;;1.20;;
29700;SDS011;57917;51.380;-0.176;2023-08-08T10:00:32;1.50;;;1.15;;
29700;SDS011;57917;51.380;-0.176;2023-08-08T10:06:22;2.63;;;1.08;;
29700;SDS011;57917;51.380;-0.176;2023-08-08T10:12:10;2.05;;;0.73;;
29700;SDS011;57917;51.380;-0.176;2023-08-08T10:17:58;1.75;;;1.10;;
29700;SDS011;57917;51.380;-0.176;2023-08-08T10:24:04;4.32;;;1.08;;
29700;SDS011;57917;51.380;-0.176;2023-08-08T10:29:53;1.13;;;0.82;;
29700;SDS011;57917;51.380;-0.176;2023-08-08T10:35:40;4.90;;;1.00;;
29700;SDS011;57917;51.380;-0.176;2023-08-08T10:41:27;6.38;;;1.17;;
29700;SDS011;57917;51.380;-0.176;2023-08-08T10:47:14;1.52;;;0.90;;
29700;SDS011;57917;51.380;-0.176;2023-08-08T10:53:07;1.02;;;0.80;;
29700;SDS011;57917;51.380;-0.176;2023-08-08T10:58:56;2.33;;;1.02;;
29700;SDS011;57917;51.380;-0.176;2023-08-08T11:04:43;1.35;;;0.85;;
29700;SDS011;57917;51.380;-0.176;2023-08-08T11:10:34;2.60;;;0.93;;
29700;SDS011;57917;51.380;-0.176;2023-08-08T11:16:22;2.63;;;1.00;;
29700;SDS011;57917;51.380;-0.176;2023-08-08T11:22:09;5.35;;;0.70;;
29700;SDS011;57917;51.380;-0.176;2023-08-08T11:27:58;0.60;;;0.60;;
29700;SDS011;57917;51.380;-0.176;2023-08-08T11:33:46;0.75;;;0.63;;
29700;SDS011;57917;51.380;-0.176;2023-08-08T11:39:33;2.85;;;1.40;;
29700;SDS011;57917;51.380;-0.176;2023-08-08T11:45:21;2.60;;;1.40;;
29700;SDS011;57917;51.380;-0.176;2023-08-08T11:51:08;2.30;;;1.33;;
29700;SDS011;57917;51.380;-0.176;2023-08-08T11:56:56;6.20;;;1.30;;
29700;SDS011;57917;51.380;-0.176;2023-08-08T12:02:43;2.30;;;1.15;;
29700;SDS011;57917;51.380;-0.176;2023-08-08T12:08:31;2.65;;;1.13;;
29700;SDS011;57917;51.380;-0.176;2023-08-08T12:14:18;2.60;;;1.13;;
29700;SDS011;57917;51.380;-0.176;2023-08-08T12:20:06;1.10;;;0.82;;
29700;SDS011;57917;51.380;-0.176;2023-08-08T12:25:54;1.52;;;0.90;;
29700;SDS011;57917;51.380;-0.176;2023-08-08T12:31:43;2.05;;;0.75;;
29700;SDS011;57917;51.380;-0.176;2023-08-08T12:37:29;0.68;;;0.35;;
29700;SDS011;57917;51.380;-0.176;2023-08-08T12:43:16;0.30;;;0.30;;
29700;SDS011;57917;51.380;-0.176;2023-08-08T12:49:04;3.80;;;0.32;;
29700;SDS011;57917;51.380;-0.176;2023-08-08T12:54:51;3.70;;;0.52;;
29700;SDS011;57917;51.380;-0.176;2023-08-08T13:00:37;1.45;;;0.43;;
29700;SDS011;57917;51.380;-0.176;2023-08-08T13:06:26;1.98;;;0.50;;
29700;SDS011;57917;51.380;-0.176;2023-08-08T13:12:13;0.93;;;0.40;;
29700;SDS011;57917;51.380;-0.176;2023-08-08T13:18:00;1.13;;;0.60;;
29700;SDS011;57917;51.380;-0.176;2023-08-08T13:23:47;1.25;;;0.80;;
29700;SDS011;57917;51.380;-0.176;2023-08-08T13:29:34;3.10;;;0.80;;
29700;SDS011;57917;51.380;-0.176;2023-08-08T13:35:21;1.10;;;0.85;;
29700;SDS011;57917;51.380;-0.176;2023-08-08T13:41:07;1.38;;;0.68;;
29700;SDS011;57917;51.380;-0.176;2023-08-08T13:46:55;1.33;;;0.90;;
29700;SDS011;57917;51.380;-0.176;2023-08-08T13:52:44;13.70;;;1.08;;
29700;SDS011;57917;51.380;-0.176;2023-08-08T13:58:33;4.88;;;1.02;;
29700;SDS011;57917;51.380;-0.176;2023-08-08T14:04:23;3.33;;;1.60;;
29700;SDS011;57917;51.380;-0.176;2023-08-08T14:10:11;4.03;;;1.38;;
29700;SDS011;57917;51.380;-0.176;2023-08-08T14:15:58;3.17;;;1.55;;
29700;SDS011;57917;51.380;-0.176;2023-08-08T14:21:45;3.55;;;1.35;;
29700;SDS011;57917;51.380;-0.176;2023-08-08T14:27:32;2.55;;;1.33;;
29700;SDS011;57917;51.380;-0.176;2023-08-08T14:33:19;3.05;;;1.15;;
29700;SDS011;57917;51.380;-0.176;2023-08-08T14:39:05;2.30;;;1.50;;
29700;SDS011;57917;51.380;-0.176;2023-08-08T14:44:53;6.75;;;1.67;;
29700;SDS011;57917;51.380;-0.176;2023-08-08T14:50:40;3.50;;;1.83;;
29700;SDS011;57917;51.380;-0.176;2023-08-08T14:56:27;4.10;;;1.52;;
29700;SDS011;57917;51.380;-0.176;2023-08-08T15:02:14;2.50;;;1.80;;
29700;SDS011;57917;51.380;-0.176;2023-08-08T15:08:01;2.97;;;1.67;;
29700;SDS011;57917;51.380;-0.176;2023-08-08T15:13:48;4.75;;;1.70;;
29700;SDS011;57917;51.380;-0.176;2023-08-08T15:19:35;7.65;;;1.42;;
29700;SDS011;57917;51.380;-0.176;2023-08-08T15:25:24;1.40;;;1.10;;
29700;SDS011;57917;51.380;-0.176;2023-08-08T15:31:11;1.60;;;1.33;;
29700;SDS011;57917;51.380;-0.176;2023-08-08T15:36:57;4.13;;;1.70;;
29700;SDS011;57917;51.380;-0.176;2023-08-08T15:42:45;4.07;;;2.40;;
29700;SDS011;57917;51.380;-0.176;2023-08-08T15:48:32;4.43;;;2.13;;
29700;SDS011;57917;51.380;-0.176;2023-08-08T15:54:19;5.38;;;2.40;;
29700;SDS011;57917;51.380;-0.176;2023-08-08T16:00:08;3.45;;;2.40;;
29700;SDS011;57917;51.380;-0.176;2023-08-08T16:05:59;8.00;;;2.47;;
29700;SDS011;57917;51.380;-0.176;2023-08-08T16:11:47;2.67;;;1.90;;
29700;SDS011;57917;51.380;-0.176;2023-08-08T16:17:34;4.10;;;2.03;;
29700;SDS011;57917;51.380;-0.176;2023-08-08T16:23:22;3.58;;;2.20;;
29700;SDS011;57917;51.380;-0.176;2023-08-08T16:29:08;3.47;;;2.05;;
29700;SDS011;57917;51.380;-0.176;2023-08-08T16:34:55;5.53;;;1.90;;
29700;SDS011;57917;51.380;-0.176;2023-08-08T16:40:42;2.30;;;1.75;;
29700;SDS011;57917;51.380;-0.176;2023-08-08T16:46:29;3.28;;;1.45;;
29700;SDS011;57917;51.380;-0.176;2023-08-08T16:52:16;2.78;;;1.58;;
29700;SDS011;57917;51.380;-0.176;2023-08-08T16:58:03;3.38;;;1.13;;
29700;SDS011;57917;51.380;-0.176;2023-08-08T17:03:49;2.70;;;1.65;;
29700;SDS011;57917;51.380;-0.176;2023-08-08T17:09:36;2.30;;;0.98;;
29700;SDS011;57917;51.380;-0.176;2023-08-08T17:15:23;2.08;;;1.35;;
29700;SDS011;57917;51.380;-0.176;2023-08-08T17:21:10;2.75;;;0.98;;
29700;SDS011;57917;51.380;-0.176;2023-08-08T17:26:59;2.45;;;1.25;;
29700;SDS011;57917;51.380;-0.176;2023-08-08T17:32:46;1.48;;;1.08;;
29700;SDS011;57917;51.380;-0.176;2023-08-08T17:38:34;1.35;;;1.25;;
29700;SDS011;57917;51.380;-0.176;2023-08-08T17:44:23;4.03;;;0.80;;
29700;SDS011;57917;51.380;-0.176;2023-08-08T17:50:10;2.50;;;1.33;;
29700;SDS011;57917;51.380;-0.176;2023-08-08T17:56:06;3.15;;;1.30;;
29700;SDS011;57917;51.380;-0.176;2023-08-08T18:01:53;2.67;;;1.30;;
29700;SDS011;57917;51.380;-0.176;2023-08-08T18:07:41;3.42;;;1.38;;
29700;SDS011;57917;51.380;-0.176;2023-08-08T18:13:28;2.97;;;1.30;;
29700;SDS011;57917;51.380;-0.176;2023-08-08T18:19:14;3.30;;;1.60;;
29700;SDS011;57917;51.380;-0.176;2023-08-08T18:25:06;1.73;;;1.40;;
29700;SDS011;57917;51.380;-0.176;2023-08-08T18:30:53;4.57;;;1.52;;
29700;SDS011;57917;51.380;-0.176;2023-08-08T18:36:40;2.92;;;1.45;;
29700;SDS011;57917;51.380;-0.176;2023-08-08T18:42:27;2.50;;;1.45;;
29700;SDS011;57917;51.380;-0.176;2023-08-08T18:48:13;2.58;;;1.50;;
29700;SDS011;57917;51.380;-0.176;2023-08-08T18:54:00;4.07;;;2.67;;
29700;SDS011;57917;51.380;-0.176;2023-08-08T18:59:47;4.55;;;2.03;;
29700;SDS011;57917;51.380;-0.176;2023-08-08T19:05:37;3.88;;;1.92;;
29700;SDS011;57917;51.380;-0.176;2023-08-08T19:11:24;3.88;;;1.55;;
29700;SDS011;57917;51.380;-0.176;2023-08-08T19:17:13;8.20;;;2.53;;
29700;SDS011;57917;51.380;-0.176;2023-08-08T19:23:00;8.85;;;2.00;;
29700;SDS011;57917;51.380;-0.176;2023-08-08T19:28:47;3.35;;;1.70;;
29700;SDS011;57917;51.380;-0.176;2023-08-08T19:34:34;3.63;;;1.45;;
29700;SDS011;57917;51.380;-0.176;2023-08-08T19:40:21;3.97;;;1.80;;
29700;SDS011;57917;51.380;-0.176;2023-08-08T19:46:08;2.72;;;1.60;;
29700;SDS011;57917;51.380;-0.176;2023-08-08T19:51:57;7.63;;;2.00;;
29700;SDS011;57917;51.380;-0.176;2023-08-08T19:57:44;4.93;;;2.03;;
29700;SDS011;57917;51.380;-0.176;2023-08-08T20:03:31;3.20;;;1.33;;
29700;SDS011;57917;51.380;-0.176;2023-08-08T20:09:19;6.95;;;1.38;;
29700;SDS011;57917;51.380;-0.176;2023-08-08T20:15:08;4.53;;;2.55;;
29700;SDS011;57917;51.380;-0.176;2023-08-08T20:20:56;7.13;;;1.90;;
29700;SDS011;57917;51.380;-0.176;2023-08-08T20:26:43;3.22;;;1.90;;
29700;SDS011;57917;51.380;-0.176;2023-08-08T20:32:33;6.60;;;1.52;;
29700;SDS011;57917;51.380;-0.176;2023-08-08T20:38:20;4.18;;;2.00;;
29700;SDS011;57917;51.380;-0.176;2023-08-08T20:44:07;4.15;;;1.75;;
29700;SDS011;57917;51.380;-0.176;2023-08-08T20:49:53;4.10;;;1.80;;
29700;SDS011;57917;51.380;-0.176;2023-08-08T20:55:40;5.25;;;1.90;;
29700;SDS011;57917;51.380;-0.176;2023-08-08T21:01:27;2.55;;;1.48;;
29700;SDS011;57917;51.380;-0.176;2023-08-08T21:07:17;3.38;;;1.80;;
29700;SDS011;57917;51.380;-0.176;2023-08-08T21:13:05;11.65;;;2.17;;
29700;SDS011;57917;51.380;-0.176;2023-08-08T21:18:54;4.10;;;1.85;;
29700;SDS011;57917;51.380;-0.176;2023-08-08T21:24:40;9.02;;;2.67;;
29700;SDS011;57917;51.380;-0.176;2023-08-08T21:30:27;4.95;;;1.60;;
29700;SDS011;57917;51.380;-0.176;2023-08-08T21:36:14;0.95;;;0.85;;
29700;SDS011;57917;51.380;-0.176;2023-08-08T21:42:01;4.78;;;1.10;;
29700;SDS011;57917;51.380;-0.176;2023-08-08T21:47:48;1.38;;;0.90;;
29700;SDS011;57917;51.380;-0.176;2023-08-08T21:53:34;1.90;;;0.93;;
29700;SDS011;57917;51.380;-0.176;2023-08-08T21:59:21;4.05;;;1.08;;
29700;SDS011;57917;51.380;-0.176;2023-08-08T22:05:10;9.48;;;1.10;;
29700;SDS011;57917;51.380;-0.176;2023-08-08T22:10:57;1.98;;;0.90;;
29700;SDS011;57917;51.380;-0.176;2023-08-08T22:16:44;2.78;;;0.90;;
29700;SDS011;57917;51.380;-0.176;2023-08-08T22:22:31;4.07;;;1.05;;
29700;SDS011;57917;51.380;-0.176;2023-08-08T22:28:20;2.55;;;1.10;;
29700;SDS011;57917;51.380;-0.176;2023-08-08T22:34:07;1.65;;;0.95;;
29700;SDS011;57917;51.380;-0.176;2023-08-08T22:39:54;3.17;;;1.13;;
29700;SDS011;57917;51.380;-0.176;2023-08-08T22:45:41;1.10;;;0.80;;
29700;SDS011;57917;51.380;-0.176;2023-08-08T22:51:28;5.72;;;1.10;;
29700;SDS011;57917;51.380;-0.176;2023-08-08T22:57:17;2.33;;;0.85;;
29700;SDS011;57917;51.380;-0.176;2023-08-08T23:03:04;2.08;;;0.82;;
29700;SDS011;57917;51.380;-0.176;2023-08-08T23:08:51;1.83;;;1.10;;
29700;SDS011;57917;51.380;-0.176;2023-08-08T23:14:37;3.95;;;1.17;;
29700;SDS011;57917;51.380;-0.176;2023-08-08T23:20:24;2.13;;;0.52;;
29700;SDS011;57917;51.380;-0.176;2023-08-08T23:26:11;1.30;;;0.80;;
29700;SDS011;57917;51.380;-0.176;2023-08-08T23:31:58;1.38;;;0.80;;
29700;SDS011;57917;51.380;-0.176;2023-08-08T23:37:45;5.53;;;1.85;;
29700;SDS011;57917;51.380;-0.176;2023-08-08T23:43:31;1.02;;;0.85;;
29700;SDS011;57917;51.380;-0.176;2023-08-08T23:49:18;3.40;;;1.00;;
29700;SDS011;57917;51.380;-0.176;2023-08-08T23:55:05;3.72;;;0.90;;
